sensor_id;sensor_type;location;lat;lon;timestamp;temperature;humidity
16485;DHT22;8353;47.856;12.344;2023-08-31T00:02:09;16.20;99.90
16485;DHT22;8353;47.856;12.344;2023-08-31T00:04:40;16.20;99.90
16485;DHT22;8353;47.856;12.344;2023-08-31T00:07:13;16.30;99.90
16485;DHT22;8353;47.856;12.344;2023-08-31T00:09:44;16.40;99.90
16485;DHT22;8353;47.856;12.344;2023-08-31T00:12:16;16.30;99.90
16485;DHT22;8353;47.856;12.344;2023-08-31T00:14:47;16.40;99.90
16485;DHT22;8353;47.856;12.344;2023-08-31T00:17:17;16.40;99.90
16485;DHT22;8353;47.856;12.344;2023-08-31T00:19:47;16.50;99.90
16485;DHT22;8353;47.856;12.344;2023-08-31T00:22:19;16.50;99.90
16485;DHT22;8353;47.856;12.344;2023-08-31T00:24:49;16.50;99.90
16485;DHT22;8353;47.856;12.344;2023-08-31T00:27:22;16.60;99.90
16485;DHT22;8353;47.856;12.344;2023-08-31T00:29:53;16.60;99.90
16485;DHT22;8353;47.856;12.344;2023-08-31T00:32:24;16.50;99.90
16485;DHT22;8353;47.856;12.344;2023-08-31T00:34:55;16.40;99.90
16485;DHT22;8353;47.856;12.344;2023-08-31T00:37:26;16.30;99.90
16485;DHT22;8353;47.856;12.344;2023-08-31T00:39:58;16.30;99.90
16485;DHT22;8353;47.856;12.344;2023-08-31T00:42:29;16.30;99.90
16485;DHT22;8353;47.856;12.344;2023-08-31T00:44:59;16.30;99.90
16485;DHT22;8353;47.856;12.344;2023-08-31T00:47:30;16.30;99.90
16485;DHT22;8353;47.856;12.344;2023-08-31T00:50:02;16.30;99.90
16485;DHT22;8353;47.856;12.344;2023-08-31T00:52:32;16.40;99.90
16485;DHT22;8353;47.856;12.344;2023-08-31T00:55:03;16.30;99.90
16485;DHT22;8353;47.856;12.344;2023-08-31T00:57:36;16.30;99.90
16485;DHT22;8353;47.856;12.344;2023-08-31T01:00:08;16.40;99.90
16485;DHT22;8353;47.856;12.344;2023-08-31T01:02:44;16.40;99.90
16485;DHT22;8353;47.856;12.344;2023-08-31T01:05:33;16.40;99.90
16485;DHT22;8353;47.856;12.344;2023-08-31T01:08:19;16.40;99.90
16485;DHT22;8353;47.856;12.344;2023-08-31T01:10:58;16.40;99.90
16485;DHT22;8353;47.856;12.344;2023-08-31T01:13:31;16.40;99.90
16485;DHT22;8353;47.856;12.344;2023-08-31T01:16:06;16.50;99.90
16485;DHT22;8353;47.856;12.344;2023-08-31T01:18:39;16.40;99.90
16485;DHT22;8353;47.856;12.344;2023-08-31T01:21:17;16.30;99.90
16485;DHT22;8353;47.856;12.344;2023-08-31T01:23:53;16.20;99.90
16485;DHT22;8353;47.856;12.344;2023-08-31T01:26:24;16.20;99.90
16485;DHT22;8353;47.856;12.344;2023-08-31T01:28:55;16.20;99.90
16485;DHT22;8353;47.856;12.344;2023-08-31T01:31:26;16.30;99.90
16485;DHT22;8353;47.856;12.344;2023-08-31T01:33:56;16.40;99.90
16485;DHT22;8353;47.856;12.344;2023-08-31T01:36:28;16.40;99.90
16485;DHT22;8353;47.856;12.344;2023-08-31T01:39:03;16.40;99.90
16485;DHT22;8353;47.856;12.344;2023-08-31T01:41:56;16.40;99.90
16485;DHT22;8353;47.856;12.344;2023-08-31T01:44:28;16.40;99.90
16485;DHT22;8353;47.856;12.344;2023-08-31T01:47:03;16.40;99.90
16485;DHT22;8353;47.856;12.344;2023-08-31T01:49:37;16.40;99.90
16485;DHT22;8353;47.856;12.344;2023-08-31T01:52:08;16.40;99.90
16485;DHT22;8353;47.856;12.344;2023-08-31T01:54:40;16.40;99.90
16485;DHT22;8353;47.856;12.344;2023-08-31T01:57:10;16.50;99.90
16485;DHT22;8353;47.856;12.344;2023-08-31T01:59:40;16.50;99.90
16485;DHT22;8353;47.856;12.344;2023-08-31T02:02:11;16.50;99.90
16485;DHT22;8353;47.856;12.344;2023-08-31T02:04:44;16.60;99.90
16485;DHT22;8353;47.856;12.344;2023-08-31T02:07:14;16.50;99.90
16485;DHT22;8353;47.856;12.344;2023-08-31T02:09:45;16.40;99.90
16485;DHT22;8353;47.856;12.344;2023-08-31T02:12:15;16.30;99.90
16485;DHT22;8353;47.856;12.344;2023-08-31T02:14:46;16.30;99.90
16485;DHT22;8353;47.856;12.344;2023-08-31T02:17:17;16.20;99.90
16485;DHT22;8353;47.856;12.344;2023-08-31T02:19:47;16.00;99.90
16485;DHT22;8353;47.856;12.344;2023-08-31T02:22:18;16.10;99.90
16485;DHT22;8353;47.856;12.344;2023-08-31T02:24:49;16.10;99.90
16485;DHT22;8353;47.856;12.344;2023-08-31T02:27:20;16.00;99.90
16485;DHT22;8353;47.856;12.344;2023-08-31T02:29:50;16.00;99.90
16485;DHT22;8353;47.856;12.344;2023-08-31T02:32:21;16.00;99.90
16485;DHT22;8353;47.856;12.344;2023-08-31T02:34:51;16.00;99.90
16485;DHT22;8353;47.856;12.344;2023-08-31T02:37:22;15.90;99.90
16485;DHT22;8353;47.856;12.344;2023-08-31T02:39:53;15.90;99.90
16485;DHT22;8353;47.856;12.344;2023-08-31T02:42:24;15.90;99.90
16485;DHT22;8353;47.856;12.344;2023-08-31T02:44:54;16.00;99.90
16485;DHT22;8353;47.856;12.344;2023-08-31T02:47:25;16.00;99.90
16485;DHT22;8353;47.856;12.344;2023-08-31T02:49:55;16.00;99.90
16485;DHT22;8353;47.856;12.344;2023-08-31T02:52:25;15.90;99.90
16485;DHT22;8353;47.856;12.344;2023-08-31T02:54:57;16.00;99.90
16485;DHT22;8353;47.856;12.344;2023-08-31T02:57:28;15.90;99.90
16485;DHT22;8353;47.856;12.344;2023-08-31T02:59:59;15.90;99.90
16485;DHT22;8353;47.856;12.344;2023-08-31T03:02:29;15.80;99.90
16485;DHT22;8353;47.856;12.344;2023-08-31T03:04:59;15.90;99.90
16485;DHT22;8353;47.856;12.344;2023-08-31T03:07:31;16.00;99.90
16485;DHT22;8353;47.856;12.344;2023-08-31T03:10:02;16.00;99.90
16485;DHT22;8353;47.856;12.344;2023-08-31T03:12:33;16.00;99.90
16485;DHT22;8353;47.856;12.344;2023-08-31T03:15:05;16.00;99.90
16485;DHT22;8353;47.856;12.344;2023-08-31T03:17:36;16.00;99.90
16485;DHT22;8353;47.856;12.344;2023-08-31T03:20:07;15.90;99.90
16485;DHT22;8353;47.856;12.344;2023-08-31T03:22:39;15.80;99.90
16485;DHT22;8353;47.856;12.344;2023-08-31T03:25:11;15.80;99.90
16485;DHT22;8353;47.856;12.344;2023-08-31T03:27:41;15.80;99.90
16485;DHT22;8353;47.856;12.344;2023-08-31T03:30:12;15.90;99.90
16485;DHT22;8353;47.856;12.344;2023-08-31T03:32:42;15.90;99.90
16485;DHT22;8353;47.856;12.344;2023-08-31T03:35:13;15.90;99.90
16485;DHT22;8353;47.856;12.344;2023-08-31T03:37:46;16.00;99.90
16485;DHT22;8353;47.856;12.344;2023-08-31T03:40:18;16.00;99.90
16485;DHT22;8353;47.856;12.344;2023-08-31T03:42:49;16.00;99.90
16485;DHT22;8353;47.856;12.344;2023-08-31T03:45:19;16.00;99.90
16485;DHT22;8353;47.856;12.344;2023-08-31T03:47:50;16.00;99.90
16485;DHT22;8353;47.856;12.344;2023-08-31T03:50:20;16.00;99.90
16485;DHT22;8353;47.856;12.344;2023-08-31T03:52:51;16.00;99.90
16485;DHT22;8353;47.856;12.344;2023-08-31T03:55:23;16.00;99.90
16485;DHT22;8353;47.856;12.344;2023-08-31T03:57:53;15.90;99.90
16485;DHT22;8353;47.856;12.344;2023-08-31T04:00:24;15.80;99.90
16485;DHT22;8353;47.856;12.344;2023-08-31T04:02:54;15.80;99.90
16485;DHT22;8353;47.856;12.344;2023-08-31T04:05:24;15.80;99.90
16485;DHT22;8353;47.856;12.344;2023-08-31T04:07:54;15.80;99.90
16485;DHT22;8353;47.856;12.344;2023-08-31T04:10:26;15.80;99.90
16485;DHT22;8353;47.856;12.344;2023-08-31T04:12:58;15.80;99.90
16485;DHT22;8353;47.856;12.344;2023-08-31T04:15:29;15.70;99.90
16485;DHT22;8353;47.856;12.344;2023-08-31T04:18:01;15.80;99.90
16485;DHT22;8353;47.856;12.344;2023-08-31T04:20:33;15.80;99.90
16485;DHT22;8353;47.856;12.344;2023-08-31T04:23:03;15.80;99.90
16485;DHT22;8353;47.856;12.344;2023-08-31T04:25:35;15.80;99.90
16485;DHT22;8353;47.856;12.344;2023-08-31T04:28:06;15.80;99.90
16485;DHT22;8353;47.856;12.344;2023-08-31T04:30:36;15.70;99.90
16485;DHT22;8353;47.856;12.344;2023-08-31T04:33:07;15.70;99.90
16485;DHT22;8353;47.856;12.344;2023-08-31T04:35:38;15.70;99.90
16485;DHT22;8353;47.856;12.344;2023-08-31T04:38:08;15.50;99.90
16485;DHT22;8353;47.856;12.344;2023-08-31T04:40:39;15.50;99.90
16485;DHT22;8353;47.856;12.344;2023-08-31T04:43:10;15.50;99.90
16485;DHT22;8353;47.856;12.344;2023-08-31T04:45:40;15.50;99.90
16485;DHT22;8353;47.856;12.344;2023-08-31T04:48:10;15.50;99.90
16485;DHT22;8353;47.856;12.344;2023-08-31T04:50:41;15.60;99.90
16485;DHT22;8353;47.856;12.344;2023-08-31T04:53:11;15.60;99.90
16485;DHT22;8353;47.856;12.344;2023-08-31T04:55:44;15.50;99.90
16485;DHT22;8353;47.856;12.344;2023-08-31T04:58:14;15.50;99.90
16485;DHT22;8353;47.856;12.344;2023-08-31T05:00:44;15.50;99.90
16485;DHT22;8353;47.856;12.344;2023-08-31T05:03:16;15.50;99.90
16485;DHT22;8353;47.856;12.344;2023-08-31T05:05:46;15.40;99.90
16485;DHT22;8353;47.856;12.344;2023-08-31T05:08:16;15.50;99.90
16485;DHT22;8353;47.856;12.344;2023-08-31T05:10:48;15.50;99.90
16485;DHT22;8353;47.856;12.344;2023-08-31T05:13:18;15.60;99.90
16485;DHT22;8353;47.856;12.344;2023-08-31T05:15:48;15.50;99.90
16485;DHT22;8353;47.856;12.344;2023-08-31T05:18:18;15.50;99.90
16485;DHT22;8353;47.856;12.344;2023-08-31T05:20:49;15.50;99.90
16485;DHT22;8353;47.856;12.344;2023-08-31T05:23:19;15.50;99.90
16485;DHT22;8353;47.856;12.344;2023-08-31T05:25:50;15.50;99.90
16485;DHT22;8353;47.856;12.344;2023-08-31T05:28:21;15.60;99.90
16485;DHT22;8353;47.856;12.344;2023-08-31T05:30:53;15.60;99.90
16485;DHT22;8353;47.856;12.344;2023-08-31T05:33:23;15.60;99.90
16485;DHT22;8353;47.856;12.344;2023-08-31T05:35:54;15.70;99.90
16485;DHT22;8353;47.856;12.344;2023-08-31T05:38:25;15.70;99.90
16485;DHT22;8353;47.856;12.344;2023-08-31T05:41:03;15.70;99.90
16485;DHT22;8353;47.856;12.344;2023-08-31T05:43:34;15.70;99.90
16485;DHT22;8353;47.856;12.344;2023-08-31T05:46:05;15.70;99.90
16485;DHT22;8353;47.856;12.344;2023-08-31T05:48:37;15.60;99.90
16485;DHT22;8353;47.856;12.344;2023-08-31T05:51:08;15.70;99.90
16485;DHT22;8353;47.856;12.344;2023-08-31T05:53:38;15.80;99.90
16485;DHT22;8353;47.856;12.344;2023-08-31T05:56:10;15.80;99.90
16485;DHT22;8353;47.856;12.344;2023-08-31T05:58:41;15.80;99.90
16485;DHT22;8353;47.856;12.344;2023-08-31T06:01:11;15.90;99.90
16485;DHT22;8353;47.856;12.344;2023-08-31T06:03:42;15.80;99.90
16485;DHT22;8353;47.856;12.344;2023-08-31T06:06:12;15.80;99.90
16485;DHT22;8353;47.856;12.344;2023-08-31T06:08:44;15.70;99.90
16485;DHT22;8353;47.856;12.344;2023-08-31T06:11:16;15.80;99.90
16485;DHT22;8353;47.856;12.344;2023-08-31T06:13:46;15.80;99.90
16485;DHT22;8353;47.856;12.344;2023-08-31T06:16:17;16.00;99.90
16485;DHT22;8353;47.856;12.344;2023-08-31T06:18:49;15.90;99.90
16485;DHT22;8353;47.856;12.344;2023-08-31T06:21:20;15.90;99.90
16485;DHT22;8353;47.856;12.344;2023-08-31T06:23:50;16.00;99.90
16485;DHT22;8353;47.856;12.344;2023-08-31T06:26:22;15.90;99.90
16485;DHT22;8353;47.856;12.344;2023-08-31T06:28:52;16.00;99.90
16485;DHT22;8353;47.856;12.344;2023-08-31T06:31:24;16.10;99.90
16485;DHT22;8353;47.856;12.344;2023-08-31T06:33:56;16.00;99.90
16485;DHT22;8353;47.856;12.344;2023-08-31T06:36:26;16.10;99.90
16485;DHT22;8353;47.856;12.344;2023-08-31T06:38:57;16.30;99.90
16485;DHT22;8353;47.856;12.344;2023-08-31T06:41:28;16.30;99.90
16485;DHT22;8353;47.856;12.344;2023-08-31T06:43:59;16.40;99.90
16485;DHT22;8353;47.856;12.344;2023-08-31T06:46:30;16.40;99.90
16485;DHT22;8353;47.856;12.344;2023-08-31T06:49:03;16.40;99.90
16485;DHT22;8353;47.856;12.344;2023-08-31T06:51:34;16.40;99.90
16485;DHT22;8353;47.856;12.344;2023-08-31T06:54:05;16.30;99.90
16485;DHT22;8353;47.856;12.344;2023-08-31T06:56:37;16.30;99.90
16485;DHT22;8353;47.856;12.344;2023-08-31T06:59:08;16.30;99.90
16485;DHT22;8353;47.856;12.344;2023-08-31T07:01:38;16.20;99.90
16485;DHT22;8353;47.856;12.344;2023-08-31T07:04:09;16.20;99.90
16485;DHT22;8353;47.856;12.344;2023-08-31T07:06:39;16.10;99.90
16485;DHT22;8353;47.856;12.344;2023-08-31T07:09:10;16.10;99.90
16485;DHT22;8353;47.856;12.344;2023-08-31T07:11:41;16.10;99.90
16485;DHT22;8353;47.856;12.344;2023-08-31T07:14:12;16.10;99.90
16485;DHT22;8353;47.856;12.344;2023-08-31T07:16:42;16.10;99.90
16485;DHT22;8353;47.856;12.344;2023-08-31T07:19:14;16.10;99.90
16485;DHT22;8353;47.856;12.344;2023-08-31T07:21:46;16.20;99.90
16485;DHT22;8353;47.856;12.344;2023-08-31T07:24:18;16.00;99.90
16485;DHT22;8353;47.856;12.344;2023-08-31T07:26:50;16.00;99.90
16485;DHT22;8353;47.856;12.344;2023-08-31T07:29:20;16.10;99.90
16485;DHT22;8353;47.856;12.344;2023-08-31T07:31:54;16.10;99.90
16485;DHT22;8353;47.856;12.344;2023-08-31T07:34:24;16.20;99.90
16485;DHT22;8353;47.856;12.344;2023-08-31T07:36:55;16.30;99.90
16485;DHT22;8353;47.856;12.344;2023-08-31T07:39:25;16.20;99.90
16485;DHT22;8353;47.856;12.344;2023-08-31T07:41:58;16.20;99.90
16485;DHT22;8353;47.856;12.344;2023-08-31T07:44:29;16.30;99.90
16485;DHT22;8353;47.856;12.344;2023-08-31T07:47:00;16.30;99.90
16485;DHT22;8353;47.856;12.344;2023-08-31T07:49:31;16.30;99.90
16485;DHT22;8353;47.856;12.344;2023-08-31T07:52:01;16.30;99.90
16485;DHT22;8353;47.856;12.344;2023-08-31T07:54:34;16.30;99.90
16485;DHT22;8353;47.856;12.344;2023-08-31T07:57:06;16.30;99.90
16485;DHT22;8353;47.856;12.344;2023-08-31T07:59:37;16.40;99.90
16485;DHT22;8353;47.856;12.344;2023-08-31T08:02:08;16.40;99.90
16485;DHT22;8353;47.856;12.344;2023-08-31T08:04:38;16.40;99.90
16485;DHT22;8353;47.856;12.344;2023-08-31T08:07:08;16.30;99.90
16485;DHT22;8353;47.856;12.344;2023-08-31T08:09:38;16.40;99.90
16485;DHT22;8353;47.856;12.344;2023-08-31T08:12:10;16.40;99.90
16485;DHT22;8353;47.856;12.344;2023-08-31T08:14:40;16.50;99.90
16485;DHT22;8353;47.856;12.344;2023-08-31T08:17:11;16.40;99.90
16485;DHT22;8353;47.856;12.344;2023-08-31T08:19:41;16.30;99.90
16485;DHT22;8353;47.856;12.344;2023-08-31T08:22:12;16.30;99.90
16485;DHT22;8353;47.856;12.344;2023-08-31T08:24:42;16.40;99.90
16485;DHT22;8353;47.856;12.344;2023-08-31T08:27:14;16.40;99.90
16485;DHT22;8353;47.856;12.344;2023-08-31T08:29:46;16.40;99.90
16485;DHT22;8353;47.856;12.344;2023-08-31T08:32:16;16.40;99.90
16485;DHT22;8353;47.856;12.344;2023-08-31T08:34:46;16.50;99.90
16485;DHT22;8353;47.856;12.344;2023-08-31T08:37:17;16.60;99.90
16485;DHT22;8353;47.856;12.344;2023-08-31T08:39:48;16.60;99.90
16485;DHT22;8353;47.856;12.344;2023-08-31T08:42:22;16.60;99.90
16485;DHT22;8353;47.856;12.344;2023-08-31T08:44:56;16.60;99.90
16485;DHT22;8353;47.856;12.344;2023-08-31T08:47:27;16.70;99.90
16485;DHT22;8353;47.856;12.344;2023-08-31T08:49:58;16.70;99.90
16485;DHT22;8353;47.856;12.344;2023-08-31T08:52:29;16.80;99.90
16485;DHT22;8353;47.856;12.344;2023-08-31T08:55:01;17.00;99.90
16485;DHT22;8353;47.856;12.344;2023-08-31T08:57:35;17.10;99.90
16485;DHT22;8353;47.856;12.344;2023-08-31T09:00:09;17.10;99.90
16485;DHT22;8353;47.856;12.344;2023-08-31T09:02:40;17.20;99.90
16485;DHT22;8353;47.856;12.344;2023-08-31T09:05:10;17.20;99.90
16485;DHT22;8353;47.856;12.344;2023-08-31T09:07:59;17.30;99.90
16485;DHT22;8353;47.856;12.344;2023-08-31T09:10:35;17.30;99.90
16485;DHT22;8353;47.856;12.344;2023-08-31T09:13:07;17.30;99.90
16485;DHT22;8353;47.856;12.344;2023-08-31T09:15:43;17.20;99.90
16485;DHT22;8353;47.856;12.344;2023-08-31T09:18:17;17.20;99.90
16485;DHT22;8353;47.856;12.344;2023-08-31T09:20:53;17.20;99.90
16485;DHT22;8353;47.856;12.344;2023-08-31T09:23:25;17.20;99.90
16485;DHT22;8353;47.856;12.344;2023-08-31T09:25:56;17.10;99.90
16485;DHT22;8353;47.856;12.344;2023-08-31T09:28:28;17.20;99.90
16485;DHT22;8353;47.856;12.344;2023-08-31T09:31:05;17.20;99.90
16485;DHT22;8353;47.856;12.344;2023-08-31T09:33:36;17.20;99.90
16485;DHT22;8353;47.856;12.344;2023-08-31T09:36:07;17.30;99.90
16485;DHT22;8353;47.856;12.344;2023-08-31T09:38:41;17.40;99.90
16485;DHT22;8353;47.856;12.344;2023-08-31T09:41:13;17.50;99.90
16485;DHT22;8353;47.856;12.344;2023-08-31T09:43:45;17.60;99.90
16485;DHT22;8353;47.856;12.344;2023-08-31T09:46:16;17.80;99.90
16485;DHT22;8353;47.856;12.344;2023-08-31T09:49:09;18.00;99.90
16485;DHT22;8353;47.856;12.344;2023-08-31T09:51:43;18.10;99.90
16485;DHT22;8353;47.856;12.344;2023-08-31T09:54:15;18.00;99.90
16485;DHT22;8353;47.856;12.344;2023-08-31T09:56:47;18.00;99.90
16485;DHT22;8353;47.856;12.344;2023-08-31T09:59:19;17.90;99.90
16485;DHT22;8353;47.856;12.344;2023-08-31T10:01:50;17.90;99.90
16485;DHT22;8353;47.856;12.344;2023-08-31T10:04:23;17.90;99.90
16485;DHT22;8353;47.856;12.344;2023-08-31T10:06:56;17.80;99.90
16485;DHT22;8353;47.856;12.344;2023-08-31T10:09:27;17.70;99.90
16485;DHT22;8353;47.856;12.344;2023-08-31T10:11:57;17.70;99.90
16485;DHT22;8353;47.856;12.344;2023-08-31T10:14:29;17.70;99.90
16485;DHT22;8353;47.856;12.344;2023-08-31T10:17:00;17.70;99.90
16485;DHT22;8353;47.856;12.344;2023-08-31T10:19:31;17.80;99.90
16485;DHT22;8353;47.856;12.344;2023-08-31T10:22:02;17.90;99.90
16485;DHT22;8353;47.856;12.344;2023-08-31T10:24:56;17.90;99.90
16485;DHT22;8353;47.856;12.344;2023-08-31T10:27:27;17.90;99.90
16485;DHT22;8353;47.856;12.344;2023-08-31T10:30:13;18.00;99.90
16485;DHT22;8353;47.856;12.344;2023-08-31T10:32:43;18.00;99.90
16485;DHT22;8353;47.856;12.344;2023-08-31T10:35:14;17.90;99.90
16485;DHT22;8353;47.856;12.344;2023-08-31T10:37:45;18.00;99.90
16485;DHT22;8353;47.856;12.344;2023-08-31T10:40:15;18.10;99.90
16485;DHT22;8353;47.856;12.344;2023-08-31T10:42:47;18.00;99.90
16485;DHT22;8353;47.856;12.344;2023-08-31T10:45:21;18.00;99.90
16485;DHT22;8353;47.856;12.344;2023-08-31T10:47:51;18.00;99.90
16485;DHT22;8353;47.856;12.344;2023-08-31T10:50:41;17.90;99.90
16485;DHT22;8353;47.856;12.344;2023-08-31T10:53:13;17.90;99.90
16485;DHT22;8353;47.856;12.344;2023-08-31T10:55:50;17.90;99.90
16485;DHT22;8353;47.856;12.344;2023-08-31T10:58:21;18.00;99.90
16485;DHT22;8353;47.856;12.344;2023-08-31T11:00:52;18.10;99.90
16485;DHT22;8353;47.856;12.344;2023-08-31T11:03:26;18.20;99.90
16485;DHT22;8353;47.856;12.344;2023-08-31T11:05:57;18.20;99.90
16485;DHT22;8353;47.856;12.344;2023-08-31T11:08:27;18.30;99.90
16485;DHT22;8353;47.856;12.344;2023-08-31T11:10:58;18.30;99.90
16485;DHT22;8353;47.856;12.344;2023-08-31T11:13:28;18.40;99.90
16485;DHT22;8353;47.856;12.344;2023-08-31T11:16:01;18.60;99.90
16485;DHT22;8353;47.856;12.344;2023-08-31T11:18:36;18.70;99.90
16485;DHT22;8353;47.856;12.344;2023-08-31T11:21:07;18.90;99.90
16485;DHT22;8353;47.856;12.344;2023-08-31T11:23:39;19.20;99.90
16485;DHT22;8353;47.856;12.344;2023-08-31T11:26:14;19.40;99.90
16485;DHT22;8353;47.856;12.344;2023-08-31T11:28:44;19.30;99.90
16485;DHT22;8353;47.856;12.344;2023-08-31T11:31:24;19.40;99.90
16485;DHT22;8353;47.856;12.344;2023-08-31T11:33:55;19.40;99.90
16485;DHT22;8353;47.856;12.344;2023-08-31T11:36:25;19.60;99.90
16485;DHT22;8353;47.856;12.344;2023-08-31T11:38:56;19.70;99.90
16485;DHT22;8353;47.856;12.344;2023-08-31T11:41:30;19.80;99.90
16485;DHT22;8353;47.856;12.344;2023-08-31T11:44:01;19.90;99.90
16485;DHT22;8353;47.856;12.344;2023-08-31T11:46:33;19.80;99.90
16485;DHT22;8353;47.856;12.344;2023-08-31T11:49:04;19.60;99.90
16485;DHT22;8353;47.856;12.344;2023-08-31T11:51:36;19.50;99.90
16485;DHT22;8353;47.856;12.344;2023-08-31T11:54:08;19.50;99.90
16485;DHT22;8353;47.856;12.344;2023-08-31T11:56:39;19.60;99.90
16485;DHT22;8353;47.856;12.344;2023-08-31T11:59:09;19.70;99.90
16485;DHT22;8353;47.856;12.344;2023-08-31T12:01:43;19.90;99.90
16485;DHT22;8353;47.856;12.344;2023-08-31T12:04:14;19.90;99.90
16485;DHT22;8353;47.856;12.344;2023-08-31T12:06:46;20.00;99.90
16485;DHT22;8353;47.856;12.344;2023-08-31T12:09:17;20.20;99.90
16485;DHT22;8353;47.856;12.344;2023-08-31T12:11:51;20.40;99.90
16485;DHT22;8353;47.856;12.344;2023-08-31T12:14:22;20.50;99.90
16485;DHT22;8353;47.856;12.344;2023-08-31T12:17:05;20.60;99.90
16485;DHT22;8353;47.856;12.344;2023-08-31T12:19:37;20.60;99.90
16485;DHT22;8353;47.856;12.344;2023-08-31T12:22:09;20.30;99.90
16485;DHT22;8353;47.856;12.344;2023-08-31T12:24:42;20.30;99.90
16485;DHT22;8353;47.856;12.344;2023-08-31T12:27:13;20.50;99.90
16485;DHT22;8353;47.856;12.344;2023-08-31T12:29:43;20.40;99.90
16485;DHT22;8353;47.856;12.344;2023-08-31T12:32:14;20.50;99.90
16485;DHT22;8353;47.856;12.344;2023-08-31T12:34:45;20.60;99.90
16485;DHT22;8353;47.856;12.344;2023-08-31T12:37:16;20.70;99.90
16485;DHT22;8353;47.856;12.344;2023-08-31T12:39:46;20.80;99.90
16485;DHT22;8353;47.856;12.344;2023-08-31T12:42:18;21.10;99.90
16485;DHT22;8353;47.856;12.344;2023-08-31T12:44:48;21.20;99.90
16485;DHT22;8353;47.856;12.344;2023-08-31T12:47:20;21.30;99.90
16485;DHT22;8353;47.856;12.344;2023-08-31T12:49:50;21.40;99.90
16485;DHT22;8353;47.856;12.344;2023-08-31T12:52:21;21.50;99.90
16485;DHT22;8353;47.856;12.344;2023-08-31T12:54:53;21.40;99.90
16485;DHT22;8353;47.856;12.344;2023-08-31T12:57:24;21.30;99.90
16485;DHT22;8353;47.856;12.344;2023-08-31T12:59:54;21.60;99.90
16485;DHT22;8353;47.856;12.344;2023-08-31T13:02:25;21.70;99.90
16485;DHT22;8353;47.856;12.344;2023-08-31T13:04:56;21.70;99.90
16485;DHT22;8353;47.856;12.344;2023-08-31T13:07:27;22.00;99.90
16485;DHT22;8353;47.856;12.344;2023-08-31T13:09:59;22.10;99.90
16485;DHT22;8353;47.856;12.344;2023-08-31T13:12:30;22.10;99.90
16485;DHT22;8353;47.856;12.344;2023-08-31T13:15:01;22.00;99.90
16485;DHT22;8353;47.856;12.344;2023-08-31T13:17:35;21.90;99.90
16485;DHT22;8353;47.856;12.344;2023-08-31T13:20:06;22.00;99.90
16485;DHT22;8353;47.856;12.344;2023-08-31T13:22:37;22.10;99.90
16485;DHT22;8353;47.856;12.344;2023-08-31T13:25:08;22.00;99.90
16485;DHT22;8353;47.856;12.344;2023-08-31T13:27:40;21.80;99.90
16485;DHT22;8353;47.856;12.344;2023-08-31T13:30:13;21.80;99.90
16485;DHT22;8353;47.856;12.344;2023-08-31T13:32:45;21.80;99.90
16485;DHT22;8353;47.856;12.344;2023-08-31T13:35:15;21.70;99.90
16485;DHT22;8353;47.856;12.344;2023-08-31T13:37:46;21.70;99.90
16485;DHT22;8353;47.856;12.344;2023-08-31T13:40:18;21.60;99.90
16485;DHT22;8353;47.856;12.344;2023-08-31T13:42:53;21.50;99.90
16485;DHT22;8353;47.856;12.344;2023-08-31T13:45:26;21.70;99.90
16485;DHT22;8353;47.856;12.344;2023-08-31T13:47:58;21.70;99.90
16485;DHT22;8353;47.856;12.344;2023-08-31T13:50:29;21.70;99.90
16485;DHT22;8353;47.856;12.344;2023-08-31T13:52:59;21.70;99.90
16485;DHT22;8353;47.856;12.344;2023-08-31T13:55:30;21.70;99.90
16485;DHT22;8353;47.856;12.344;2023-08-31T13:58:04;21.70;99.90
16485;DHT22;8353;47.856;12.344;2023-08-31T14:00:36;21.60;99.90
16485;DHT22;8353;47.856;12.344;2023-08-31T14:03:08;21.80;99.90
16485;DHT22;8353;47.856;12.344;2023-08-31T14:05:39;21.70;99.90
16485;DHT22;8353;47.856;12.344;2023-08-31T14:08:10;21.80;99.90
16485;DHT22;8353;47.856;12.344;2023-08-31T14:10:41;21.90;99.90
16485;DHT22;8353;47.856;12.344;2023-08-31T14:13:11;21.90;99.90
16485;DHT22;8353;47.856;12.344;2023-08-31T14:15:44;22.10;99.90
16485;DHT22;8353;47.856;12.344;2023-08-31T14:18:17;22.10;99.90
16485;DHT22;8353;47.856;12.344;2023-08-31T14:20:47;22.00;99.90
16485;DHT22;8353;47.856;12.344;2023-08-31T14:23:17;22.20;99.90
16485;DHT22;8353;47.856;12.344;2023-08-31T14:25:47;22.40;99.90
16485;DHT22;8353;47.856;12.344;2023-08-31T14:28:17;22.60;99.90
16485;DHT22;8353;47.856;12.344;2023-08-31T14:30:48;22.40;99.90
16485;DHT22;8353;47.856;12.344;2023-08-31T14:33:19;22.30;99.90
16485;DHT22;8353;47.856;12.344;2023-08-31T14:35:50;22.40;99.90
16485;DHT22;8353;47.856;12.344;2023-08-31T14:38:23;22.50;99.90
16485;DHT22;8353;47.856;12.344;2023-08-31T14:40:55;22.40;99.90
16485;DHT22;8353;47.856;12.344;2023-08-31T14:43:25;22.50;99.90
16485;DHT22;8353;47.856;12.344;2023-08-31T14:45:56;22.80;99.90
16485;DHT22;8353;47.856;12.344;2023-08-31T14:48:28;22.90;99.90
16485;DHT22;8353;47.856;12.344;2023-08-31T14:50:58;22.70;99.90
16485;DHT22;8353;47.856;12.344;2023-08-31T14:53:29;22.60;99.90
16485;DHT22;8353;47.856;12.344;2023-08-31T14:55:59;22.40;99.90
16485;DHT22;8353;47.856;12.344;2023-08-31T14:58:33;22.30;99.90
16485;DHT22;8353;47.856;12.344;2023-08-31T15:01:04;22.20;99.90
16485;DHT22;8353;47.856;12.344;2023-08-31T15:03:35;22.10;99.90
16485;DHT22;8353;47.856;12.344;2023-08-31T15:06:06;21.90;99.90
16485;DHT22;8353;47.856;12.344;2023-08-31T15:08:39;21.90;99.90
16485;DHT22;8353;47.856;12.344;2023-08-31T15:11:10;21.90;99.90
16485;DHT22;8353;47.856;12.344;2023-08-31T15:13:41;21.90;99.90
16485;DHT22;8353;47.856;12.344;2023-08-31T15:16:12;22.10;99.90
16485;DHT22;8353;47.856;12.344;2023-08-31T15:18:44;22.30;99.90
16485;DHT22;8353;47.856;12.344;2023-08-31T15:21:16;22.60;99.90
16485;DHT22;8353;47.856;12.344;2023-08-31T15:23:47;22.90;99.90
16485;DHT22;8353;47.856;12.344;2023-08-31T15:26:17;22.90;99.90
16485;DHT22;8353;47.856;12.344;2023-08-31T15:28:48;22.80;99.90
16485;DHT22;8353;47.856;12.344;2023-08-31T15:31:18;22.70;99.90
16485;DHT22;8353;47.856;12.344;2023-08-31T15:33:50;22.50;99.90
16485;DHT22;8353;47.856;12.344;2023-08-31T15:36:20;22.40;99.90
16485;DHT22;8353;47.856;12.344;2023-08-31T15:38:51;22.30;99.90
16485;DHT22;8353;47.856;12.344;2023-08-31T15:41:21;22.10;99.90
16485;DHT22;8353;47.856;12.344;2023-08-31T15:43:51;22.20;99.90
16485;DHT22;8353;47.856;12.344;2023-08-31T15:46:22;22.30;99.90
16485;DHT22;8353;47.856;12.344;2023-08-31T15:48:53;22.20;99.90
16485;DHT22;8353;47.856;12.344;2023-08-31T15:51:23;22.20;99.90
16485;DHT22;8353;47.856;12.344;2023-08-31T15:53:56;22.20;99.90
16485;DHT22;8353;47.856;12.344;2023-08-31T15:56:26;22.10;99.90
16485;DHT22;8353;47.856;12.344;2023-08-31T15:58:57;21.90;99.90